Time;durP1;ratioP1;P1;durP2;ratioP2;P2;SDS_P1;SDS_P2;PMS_P1;PMS_P2;Temp;Humidity;BMP_temperature;BMP_pressure;BME280_temperature;BME280_humidity;BME280_pressure;Samples;Min_cycle;Max_cycle;Signal;HPM_P1;HPM_P2
2021/09/27 00:00:55;;;;;;;6.47;5.87;;;;;;;17.63;72.80;95238.03;5097646;27;20438;-80
2021/09/27 00:03:22;;;;;;;6.43;5.83;;;;;;;17.60;72.85;95241.84;5133891;27;20446;-80
2021/09/27 00:05:51;;;;;;;7.30;6.20;;;;;;;17.58;72.95;95237.72;5133407;27;20989;-80
2021/09/27 00:08:18;;;;;;;8.30;6.23;;;;;;;17.59;73.15;95242.03;5133827;27;20529;-79
2021/09/27 00:10:49;;;;;;;7.03;5.93;;;;;;;17.46;73.38;95239.03;5133797;27;20447;-80
2021/09/27 00:13:18;;;;;;;10.37;5.87;;;;;;;17.40;73.58;95243.19;5133783;27;20446;-80
2021/09/27 00:15:48;;;;;;;10.30;6.07;;;;;;;17.39;74.18;95243.34;5133568;27;20442;-80
2021/09/27 00:18:15;;;;;;;6.40;5.80;;;;;;;17.42;73.98;95249.16;5133754;27;20524;-80
2021/09/27 00:20:45;;;;;;;8.07;6.10;;;;;;;17.45;73.91;95237.38;5133304;27;20437;-80
2021/09/27 00:23:14;;;;;;;9.30;6.23;;;;;;;17.38;73.81;95244.34;5133309;27;20525;-80
2021/09/27 00:25:41;;;;;;;9.53;6.00;;;;;;;17.40;73.56;95245.00;5133192;27;20518;-80
2021/09/27 00:28:09;;;;;;;6.40;5.80;;;;;;;17.43;73.42;95244.66;5133437;27;20448;-80
2021/09/27 00:30:37;;;;;;;6.07;5.47;;;;;;;17.43;73.72;95244.66;5133366;27;20806;-80
2021/09/27 00:33:05;;;;;;;6.23;5.73;;;;;;;17.37;73.40;95243.50;5133056;27;20542;-80
2021/09/27 00:35:34;;;;;;;8.63;5.90;;;;;;;17.49;73.46;95242.19;5133444;27;20820;-80
2021/09/27 00:38:01;;;;;;;6.53;5.90;;;;;;;17.54;73.15;95245.16;5133403;27;20446;-80
2021/09/27 00:40:33;;;;;;;8.40;6.20;;;;;;;17.48;72.99;95237.88;5132687;27;20465;-80
2021/09/27 00:43:01;;;;;;;9.27;6.07;;;;;;;17.53;73.10;95232.91;5133201;27;20438;-80
2021/09/27 00:45:30;;;;;;;6.00;5.53;;;;;;;17.53;73.06;95226.75;5132893;27;20448;-80
2021/09/27 00:47:57;;;;;;;7.60;6.00;;;;;;;17.55;73.15;95222.13;5133266;27;20434;-80
2021/09/27 00:50:29;;;;;;;6.10;5.50;;;;;;;17.55;72.76;95219.47;5132903;27;20971;-80
2021/09/27 00:52:59;;;;;;;10.30;6.10;;;;;;;17.53;72.70;95232.06;5133048;27;20824;-80
2021/09/27 00:55:26;;;;;;;8.07;5.60;;;;;;;17.54;72.76;95215.97;5133085;27;20615;-80
2021/09/27 00:57:55;;;;;;;13.10;5.73;;;;;;;17.52;72.65;95207.34;5132905;27;20446;-80
2021/09/27 01:00:25;;;;;;;11.03;6.70;;;;;;;17.52;72.63;95212.66;5133220;27;20438;-80
2021/09/27 01:02:52;;;;;;;5.93;5.33;;;;;;;17.50;72.12;95211.19;5133192;27;20441;-80
2021/09/27 01:05:22;;;;;;;7.00;6.30;;;;;;;17.43;72.26;95207.53;5132756;27;20445;-80
2021/09/27 01:07:56;;;;;;;6.70;5.77;;;;;;;17.44;72.45;95210.00;5132911;27;20444;-80
2021/09/27 01:10:52;;;;;;;5.97;5.47;;;;;;;17.43;72.27;95204.88;5132999;27;20451;-80
2021/09/27 01:13:42;;;;;;;5.80;5.23;;;;;;;17.43;72.32;95204.88;5133081;27;20446;-80
2021/09/27 01:16:20;;;;;;;6.70;5.30;;;;;;;17.42;73.03;95205.88;5096786;28;20511;-80
2021/09/27 01:18:59;;;;;;;6.50;5.90;;;;;;;17.39;72.78;95206.19;5132836;27;20438;-80
2021/09/27 01:21:42;;;;;;;6.33;5.73;;;;;;;17.41;72.61;95202.38;5099252;28;20448;-80
2021/09/27 01:24:48;;;;;;;6.07;5.47;;;;;;;17.46;72.69;95205.38;5132860;27;20442;-80
2021/09/27 01:27:56;;;;;;;9.03;6.00;;;;;;;17.46;72.21;95200.06;5069139;28;20487;-80
2021/09/27 01:30:52;;;;;;;7.47;5.90;;;;;;;17.42;72.52;95198.75;5069304;28;20456;-79
2021/09/27 01:33:27;;;;;;;7.87;6.47;;;;;;;17.30;72.88;95192.91;5068914;28;20476;-80
2021/09/27 01:36:07;;;;;;;11.80;5.83;;;;;;;17.23;73.78;95185.78;5069137;28;20460;-80
2021/09/27 01:38:42;;;;;;;6.60;5.83;;;;;;;17.22;73.69;95187.59;5069173;28;20454;-80
2021/09/27 01:41:20;;;;;;;10.00;6.40;;;;;;;17.19;73.99;95187.91;5069072;28;20935;-80
2021/09/27 01:43:59;;;;;;;11.93;6.37;;;;;;;17.09;74.42;95197.03;5069288;28;20455;-80
2021/09/27 01:46:32;;;;;;;6.17;5.57;;;;;;;17.07;74.28;95186.59;5069242;28;20484;-80
2021/09/27 01:49:05;;;;;;;8.90;6.97;;;;;;;17.05;74.47;95201.81;5069111;28;20451;-80
2021/09/27 01:51:41;;;;;;;6.80;6.00;;;;;;;17.02;74.96;95188.88;5069206;28;20994;-80
2021/09/27 01:54:16;;;;;;;6.87;6.23;;;;;;;17.02;74.40;95202.13;5071853;28;20441;-80
2021/09/27 01:56:55;;;;;;;5.97;5.47;;;;;;;17.01;74.45;95201.28;5072734;28;20807;-80
2021/09/27 01:59:32;;;;;;;8.53;6.67;;;;;;;17.00;75.12;95204.09;5072473;28;20446;-80
2021/09/27 02:02:06;;;;;;;6.97;6.27;;;;;;;16.92;74.74;95202.28;5072787;28;20451;-79
2021/09/27 02:04:39;;;;;;;6.23;5.63;;;;;;;16.77;75.70;95201.25;5111695;27;20444;-80
2021/09/27 02:07:07;;;;;;;6.33;5.73;;;;;;;16.77;75.19;95200.38;5136302;27;20484;-80
2021/09/27 02:09:40;;;;;;;6.70;6.10;;;;;;;16.71;75.64;95199.22;5136028;27;20460;-80
2021/09/27 02:12:13;;;;;;;5.43;4.83;;;;;;;16.66;76.41;95197.03;5135806;27;20448;-80
2021/09/27 02:14:46;;;;;;;8.10;5.87;;;;;;;16.58;76.70;95199.63;5099605;27;20899;-79
2021/09/27 02:17:20;;;;;;;7.50;6.70;;;;;;;16.61;76.21;95196.66;5135640;27;20448;-80
2021/09/27 02:19:55;;;;;;;6.57;5.97;;;;;;;16.51;76.54;95195.13;5135649;27;20438;-80
2021/09/27 02:22:28;;;;;;;9.40;6.00;;;;;;;16.39;76.97;95187.44;5100733;27;20449;-80
2021/09/27 02:25:03;;;;;;;6.67;6.07;;;;;;;16.41;77.53;95192.59;5135652;27;20458;-80
2021/09/27 02:27:29;;;;;;;6.47;5.87;;;;;;;16.41;77.32;95187.28;5135542;27;20854;-80
2021/09/27 02:29:57;;;;;;;8.97;6.67;;;;;;;16.42;77.58;95194.25;5135833;27;20781;-80
2021/09/27 02:32:30;;;;;;;8.90;6.40;;;;;;;16.49;77.42;95205.91;5135427;27;20839;-80
2021/09/27 02:35:03;;;;;;;6.73;5.17;;;;;;;16.53;77.05;95212.53;5135694;27;20442;-80
2021/09/27 02:37:36;;;;;;;9.37;6.70;;;;;;;16.55;77.10;95199.13;5135537;27;20475;-80
2021/09/27 02:40:12;;;;;;;6.63;5.90;;;;;;;16.58;76.91;95207.59;5135143;27;20444;-80
2021/09/27 02:42:45;;;;;;;8.13;6.70;;;;;;;16.57;76.80;95205.94;5135454;27;20463;-80
2021/09/27 02:45:13;;;;;;;8.73;6.37;;;;;;;16.61;76.64;95199.31;5135388;27;20455;-80
2021/09/27 02:47:42;;;;;;;8.50;6.03;;;;;;;16.55;76.81;95194.66;5135334;27;20481;-80
2021/09/27 02:50:17;;;;;;;8.73;6.60;;;;;;;16.56;77.02;95190.19;5135021;27;20450;-80
2021/09/27 02:52:44;;;;;;;7.20;6.50;;;;;;;16.51;77.29;95187.19;5135244;27;20938;-80
2021/09/27 02:55:15;;;;;;;7.43;6.70;;;;;;;16.37;78.02;95196.53;5135007;27;20521;-80
2021/09/27 02:58:04;;;;;;;8.37;7.20;;;;;;;16.33;77.59;95200.50;5099639;27;20448;-80
2021/09/27 03:00:36;;;;;;;7.70;6.90;;;;;;;16.34;77.65;95204.81;5134974;27;20949;-80
2021/09/27 03:03:13;;;;;;;7.37;6.17;;;;;;;16.39;78.08;95211.28;5134483;27;20447;-79
2021/09/27 03:05:55;;;;;;;6.80;6.20;;;;;;;16.41;77.34;95209.31;5136085;27;20444;-80
2021/09/27 03:08:46;;;;;;;8.40;7.00;;;;;;;16.29;77.91;95207.94;5135800;27;20446;-80
2021/09/27 03:11:41;;;;;;;8.00;7.17;;;;;;;16.01;79.13;95196.69;5136091;27;20444;-80
2021/09/27 03:14:21;;;;;;;9.93;6.20;;;;;;;16.16;78.60;95198.75;5135910;27;20442;-80
2021/09/27 03:16:56;;;;;;;8.70;7.00;;;;;;;16.18;79.17;95207.34;5135530;27;20451;-80
2021/09/27 03:19:43;;;;;;;6.80;5.80;;;;;;;16.20;79.01;95203.59;5135510;27;20979;-79
2021/09/27 03:22:21;;;;;;;8.20;6.87;;;;;;;16.20;78.31;95208.88;5135681;27;20432;-80
2021/09/27 03:25:06;;;;;;;7.93;7.07;;;;;;;16.22;78.64;95214.03;5135946;27;20444;-79
2021/09/27 03:27:47;;;;;;;7.47;6.77;;;;;;;16.24;78.77;95217.34;5135683;27;20484;-80
2021/09/27 03:30:23;;;;;;;8.30;7.50;;;;;;;16.26;78.63;95210.06;5135286;27;21759;-80
2021/09/27 03:33:01;;;;;;;8.33;6.33;;;;;;;16.28;78.37;95203.63;5135426;27;20472;-80
2021/09/27 03:35:43;;;;;;;11.60;7.50;;;;;;;16.30;78.01;95200.81;5135163;27;20441;-80
2021/09/27 03:38:18;;;;;;;18.03;8.47;;;;;;;16.32;77.93;95204.97;5134963;27;20951;-80
2021/09/27 03:41:01;;;;;;;11.90;7.00;;;;;;;16.34;78.04;95200.34;5135457;27;20782;-79
2021/09/27 03:43:38;;;;;;;8.27;6.67;;;;;;;16.30;77.57;95195.53;5135619;27;20835;-82
2021/09/27 03:46:14;;;;;;;8.20;7.30;;;;;;;16.28;77.71;95192.22;5135512;27;20449;-80
2021/09/27 03:48:48;;;;;;;7.47;6.63;;;;;;;16.22;77.59;95177.78;5135080;27;20802;-78
2021/09/27 03:51:19;;;;;;;8.80;5.67;;;;;;;16.19;77.99;95182.53;5134828;27;20936;-77
2021/09/27 03:53:52;;;;;;;8.03;7.10;;;;;;;16.17;78.60;95173.91;5134770;27;20443;-78
2021/09/27 03:56:25;;;;;;;8.23;6.60;;;;;;;16.10;78.15;95169.25;5134675;27;20454;-78
2021/09/27 03:58:59;;;;;;;10.90;7.40;;;;;;;16.07;78.20;95172.22;5098397;27;20912;-79
2021/09/27 04:01:34;;;;;;;11.40;7.20;;;;;;;16.06;77.71;95167.09;5134542;27;20449;-79
2021/09/27 04:04:24;;;;;;;10.00;6.97;;;;;;;15.98;78.06;95164.41;5134537;27;20532;-79
2021/09/27 04:07:01;;;;;;;12.20;9.37;;;;;;;15.94;77.94;95163.88;5070891;28;20498;-80
2021/09/27 04:09:35;;;;;;;8.80;7.80;;;;;;;15.90;78.68;95166.97;5071253;28;20449;-80
2021/09/27 04:12:14;;;;;;;13.13;7.60;;;;;;;15.88;78.36;95161.00;5070963;28;20475;-79
2021/09/27 04:14:51;;;;;;;16.83;8.17;;;;;;;15.82;78.84;95162.47;5070918;28;20992;-80
2021/09/27 04:17:32;;;;;;;9.90;7.90;;;;;;;15.80;79.15;95162.63;5070457;28;20525;-79
2021/09/27 04:20:06;;;;;;;12.10;7.47;;;;;;;15.81;79.14;95166.09;5070986;28;20801;-79
2021/09/27 04:22:37;;;;;;;10.50;7.40;;;;;;;15.79;79.41;95168.06;5070697;28;20828;-79
2021/09/27 04:25:18;;;;;;;8.83;6.87;;;;;;;15.76;79.21;95166.56;5070830;28;20443;-80
2021/09/27 04:28:08;;;;;;;11.27;8.00;;;;;;;15.79;79.73;95181.31;5070554;28;20982;-79
2021/09/27 04:31:06;;;;;;;10.03;7.07;;;;;;;15.75;79.47;95178.13;5074952;28;20459;-78
2021/09/27 04:33:57;;;;;;;12.03;6.87;;;;;;;15.78;79.77;95180.47;5010736;28;20494;-78
2021/09/27 04:36:28;;;;;;;6.87;6.20;;;;;;;15.87;79.92;95183.16;4922349;28;20973;-78
2021/09/27 04:38:58;;;;;;;11.00;7.13;;;;;;;15.94;79.88;95179.75;5011065;28;20813;-78
2021/09/27 04:41:42;;;;;;;10.53;6.63;;;;;;;16.06;79.30;95189.09;5011080;28;20483;-78
2021/09/27 04:44:25;;;;;;;7.93;6.50;;;;;;;16.16;79.94;95201.38;5052755;28;20473;-78
2021/09/27 04:47:01;;;;;;;7.97;6.40;;;;;;;16.27;79.42;95201.13;5089861;28;20488;-79
2021/09/27 04:49:42;;;;;;;8.37;7.10;;;;;;;16.31;80.25;95194.53;5056271;28;21022;-79
2021/09/27 04:52:12;;;;;;;11.20;6.87;;;;;;;16.40;79.98;95194.41;5089779;28;20436;-79
2021/09/27 04:55:00;;;;;;;12.53;8.20;;;;;;;16.50;82.46;95186.38;5089843;28;20526;-79
2021/09/27 04:57:39;;;;;;;13.20;7.67;;;;;;;16.57;81.99;95197.16;5089517;28;20465;-78
2021/09/27 05:00:16;;;;;;;12.97;8.17;;;;;;;16.64;80.77;95191.03;5056214;28;20435;-78
2021/09/27 05:03:02;;;;;;;10.97;8.10;;;;;;;16.79;79.10;95201.09;5089836;28;21142;-78
2021/09/27 05:05:46;;;;;;;17.70;9.37;;;;;;;16.77;79.46;95203.03;5089748;28;20442;-78
2021/09/27 05:08:41;;;;;;;16.27;9.97;;;;;;;16.79;79.22;95199.25;5089549;28;20506;-78
2021/09/27 05:11:20;;;;;;;13.33;8.80;;;;;;;16.93;78.95;95209.22;5130267;28;20829;-78
2021/09/27 05:14:27;;;;;;;9.97;8.07;;;;;;;17.11;77.80;95209.13;5133274;27;20541;-79
2021/09/27 05:17:12;;;;;;;13.63;9.30;;;;;;;17.51;76.64;95218.13;5132922;27;20444;-79
2021/09/27 05:19:50;;;;;;;16.37;11.17;;;;;;;17.98;73.81;95226.31;5132707;27;20945;-78
2021/09/27 05:22:36;;;;;;;24.87;10.97;;;;;;;18.20;71.48;95228.25;5096576;28;20816;-78
2021/09/27 05:25:26;;;;;;;22.13;10.70;;;;;;;18.27;70.09;95226.63;5132946;28;20439;-78
2021/09/27 05:28:09;;;;;;;20.70;10.97;;;;;;;18.26;70.61;95226.78;5071601;28;20518;-78
2021/09/27 05:30:56;;;;;;;19.40;10.23;;;;;;;18.14;71.02;95230.78;5042747;28;20791;-78
2021/09/27 05:33:37;;;;;;;16.00;10.70;;;;;;;17.82;72.14;95229.78;5072735;28;20571;-78
2021/09/27 05:36:22;;;;;;;18.03;11.67;;;;;;;17.58;73.86;95219.97;5073218;28;20434;-78
2021/09/27 05:39:03;;;;;;;18.83;12.10;;;;;;;17.44;74.69;95220.63;5073105;28;20532;-78
2021/09/27 05:41:40;;;;;;;23.83;10.50;;;;;;;17.43;74.75;95229.59;5072658;28;20445;-77
2021/09/27 05:44:21;;;;;;;17.70;10.20;;;;;;;17.89;75.97;95235.25;5072842;28;20817;-78
2021/09/27 05:47:05;;;;;;;14.80;11.23;;;;;;;18.31;72.76;95232.41;5072736;28;20527;-78
2021/09/27 05:49:41;;;;;;;25.83;10.87;;;;;;;18.49;71.20;95225.06;5072865;28;20788;-78
2021/09/27 05:52:16;;;;;;;21.50;11.30;;;;;;;18.80;69.97;95232.31;5072928;28;20452;-78
2021/09/27 05:54:49;;;;;;;24.37;11.30;;;;;;;19.12;69.43;95226.84;5072788;28;20989;-78
2021/09/27 05:57:28;;;;;;;14.37;11.47;;;;;;;19.21;67.61;95229.47;5072776;28;20465;-78
2021/09/27 06:00:02;;;;;;;27.07;10.60;;;;;;;19.25;67.47;95228.09;5072509;28;20447;-78
2021/09/27 06:02:44;;;;;;;18.93;10.83;;;;;;;19.57;68.10;95227.94;5072853;28;20439;-78
2021/09/27 06:05:17;;;;;;;28.73;11.27;;;;;;;19.91;66.05;95237.34;5103813;27;20438;-78
2021/09/27 06:07:51;;;;;;;28.93;10.20;;;;;;;20.15;64.57;95228.31;5136025;27;20484;-79
2021/09/27 06:10:25;;;;;;;17.53;10.20;;;;;;;20.29;64.08;95220.38;5135924;27;20689;-79
2021/09/27 06:13:05;;;;;;;20.97;11.50;;;;;;;20.54;63.96;95226.31;5136114;27;20450;-78
2021/09/27 06:15:41;;;;;;;16.70;10.43;;;;;;;20.60;63.04;95228.22;5099714;27;20446;-78
2021/09/27 06:18:18;;;;;;;19.03;10.30;;;;;;;20.51;62.32;95223.16;5100865;27;20452;-78
2021/09/27 06:20:53;;;;;;;25.00;12.40;;;;;;;20.17;64.50;95223.63;5135829;27;20535;-79
2021/09/27 06:23:31;;;;;;;25.20;12.37;;;;;;;19.90;65.89;95220.53;5135791;27;20505;-78
2021/09/27 06:26:06;;;;;;;22.23;11.43;;;;;;;19.64;66.52;95222.72;5135641;27;21021;-78
2021/09/27 06:28:41;;;;;;;23.17;12.67;;;;;;;20.03;65.56;95226.09;5099238;27;21022;-79
2021/09/27 06:31:15;;;;;;;18.97;11.63;;;;;;;20.51;65.43;95217.81;5135950;27;20448;-78
2021/09/27 06:33:51;;;;;;;13.93;9.87;;;;;;;21.07;63.84;95220.84;5135834;27;20482;-80
2021/09/27 06:36:22;;;;;;;14.53;10.13;;;;;;;21.26;61.99;95212.28;5135796;27;20470;-78
2021/09/27 06:38:53;;;;;;;19.57;14.27;;;;;;;21.03;62.14;95210.53;5134760;27;20447;-78
2021/09/27 06:41:22;;;;;;;16.27;11.80;;;;;;;21.25;61.44;95213.28;5135835;27;20806;-78
2021/09/27 06:43:49;;;;;;;19.80;14.00;;;;;;;21.18;61.96;95221.19;5135525;27;20443;-80
2021/09/27 06:46:16;;;;;;;20.77;11.60;;;;;;;21.57;61.87;95217.34;5135296;27;20445;-80
2021/09/27 06:48:45;;;;;;;17.07;9.87;;;;;;;21.60;59.82;95215.13;5135293;27;20485;-80
2021/09/27 06:51:12;;;;;;;14.40;9.33;;;;;;;21.70;60.33;95219.34;5135245;27;20868;-79
2021/09/27 06:53:39;;;;;;;10.60;8.37;;;;;;;21.83;59.67;95219.44;5135141;27;20447;-79
2021/09/27 06:56:06;;;;;;;14.63;8.57;;;;;;;22.08;60.20;95228.75;5098928;27;20428;-80
2021/09/27 06:58:33;;;;;;;13.23;8.67;;;;;;;22.40;58.56;95238.06;5135397;27;20444;-80
2021/09/27 07:01:00;;;;;;;15.80;10.37;;;;;;;22.47;57.89;95230.09;5135364;27;20454;-80
2021/09/27 07:03:27;;;;;;;14.33;8.60;;;;;;;22.55;58.09;95230.78;5135029;27;20444;-80
2021/09/27 07:05:56;;;;;;;12.87;8.77;;;;;;;22.70;57.51;95230.66;5135003;27;20444;-79
2021/09/27 07:08:23;;;;;;;10.20;9.10;;;;;;;22.77;57.36;95218.16;5098740;27;20996;-80
2021/09/27 07:10:52;;;;;;;11.20;8.73;;;;;;;22.92;56.63;95219.91;5134579;27;20523;-80
2021/09/27 07:13:20;;;;;;;10.40;8.40;;;;;;;22.89;55.49;95220.31;5134866;27;20445;-78
2021/09/27 07:15:47;;;;;;;13.40;9.30;;;;;;;22.96;56.85;95213.13;5134564;27;20452;-79
2021/09/27 07:18:14;;;;;;;20.60;9.63;;;;;;;23.09;57.00;95211.34;5098624;27;20444;-78
2021/09/27 07:20:42;;;;;;;14.10;8.93;;;;;;;23.17;56.69;95207.69;5098613;27;20437;-78
2021/09/27 07:23:10;;;;;;;12.90;8.40;;;;;;;23.06;56.44;95209.06;5134997;27;20441;-78
2021/09/27 07:25:37;;;;;;;10.57;8.67;;;;;;;22.47;57.08;95214.88;5134561;27;20476;-80
2021/09/27 07:28:05;;;;;;;14.43;10.73;;;;;;;22.46;57.72;95207.03;5134578;27;20530;-80
2021/09/27 07:30:32;;;;;;;12.73;9.10;;;;;;;22.58;57.90;95205.50;5098521;27;20441;-78
2021/09/27 07:32:59;;;;;;;17.93;9.20;;;;;;;22.51;57.75;95196.56;5134310;27;20838;-78
2021/09/27 07:35:29;;;;;;;9.03;8.00;;;;;;;22.61;55.69;95194.41;5134602;27;20530;-78
2021/09/27 07:37:56;;;;;;;7.87;6.87;;;;;;;22.84;56.01;95191.44;5134180;27;20523;-79
2021/09/27 07:40:26;;;;;;;8.70;7.60;;;;;;;23.01;55.36;95191.94;5134316;27;20514;-80
2021/09/27 07:42:54;;;;;;;14.23;8.47;;;;;;;23.09;55.79;95181.88;5134455;27;20445;-80
2021/09/27 07:45:23;;;;;;;8.50;7.70;;;;;;;23.27;56.35;95180.53;5134184;27;20527;-79
2021/09/27 07:47:50;;;;;;;11.43;7.40;;;;;;;23.29;56.44;95181.13;5134087;27;20488;-80
2021/09/27 07:50:17;;;;;;;13.17;8.20;;;;;;;23.30;56.07;95174.75;5097246;27;20450;-80
2021/09/27 07:52:44;;;;;;;10.60;7.20;;;;;;;23.13;55.30;95184.97;5134047;27;20961;-80
2021/09/27 07:55:13;;;;;;;11.80;7.80;;;;;;;23.10;54.70;95190.75;5133965;27;20443;-80
2021/09/27 07:57:41;;;;;;;10.10;6.80;;;;;;;23.31;55.63;95187.13;5134123;27;20953;-80
2021/09/27 08:00:10;;;;;;;11.60;7.67;;;;;;;23.57;54.96;95181.03;5134334;27;20443;-80
2021/09/27 08:02:37;;;;;;;10.13;6.83;;;;;;;23.39;53.05;95187.75;5133920;27;20443;-80
2021/09/27 08:05:05;;;;;;;20.63;8.97;;;;;;;23.41;54.97;95185.69;5133943;27;20436;-80
2021/09/27 08:07:31;;;;;;;11.60;8.23;;;;;;;23.51;55.20;95181.81;5133782;27;20802;-80
2021/09/27 08:09:58;;;;;;;10.40;6.77;;;;;;;23.43;56.95;95181.00;5133830;27;20471;-79
2021/09/27 08:12:25;;;;;;;8.77;7.87;;;;;;;23.27;57.73;95180.53;5133940;27;20444;-80
2021/09/27 08:14:54;;;;;;;7.97;7.23;;;;;;;23.10;56.88;95182.72;5134005;27;20442;-80
2021/09/27 08:17:21;;;;;;;8.43;7.43;;;;;;;22.92;57.40;95183.28;5133774;27;20554;-79
2021/09/27 08:19:48;;;;;;;10.40;7.50;;;;;;;23.03;56.17;95185.38;5097736;27;20437;-79
2021/09/27 08:22:15;;;;;;;19.20;8.30;;;;;;;23.10;56.92;95177.34;5133595;27;20452;-80
2021/09/27 08:24:42;;;;;;;10.90;8.50;;;;;;;23.37;56.06;95181.78;5133678;27;20784;-80
2021/09/27 08:27:09;;;;;;;8.10;6.93;;;;;;;23.62;55.00;95183.94;5133466;27;21005;-80
2021/09/27 08:29:36;;;;;;;11.10;6.93;;;;;;;23.73;53.05;95181.50;5133479;27;20490;-80
2021/09/27 08:32:05;;;;;;;8.00;7.30;;;;;;;23.82;52.56;95170.56;5133255;27;20485;-80
2021/09/27 08:34:32;;;;;;;9.67;7.00;;;;;;;23.97;53.24;95176.53;5133177;27;20444;-80
2021/09/27 08:36:59;;;;;;;8.60;6.50;;;;;;;24.20;52.57;95176.13;5133497;27;20448;-80
2021/09/27 08:39:26;;;;;;;11.53;7.00;;;;;;;24.49;52.25;95175.72;5133066;27;20449;-80
2021/09/27 08:41:57;;;;;;;7.20;6.00;;;;;;;24.79;51.56;95164.50;5133261;27;20532;-80
2021/09/27 08:44:38;;;;;;;10.17;8.00;;;;;;;25.06;51.65;95176.84;5098327;27;20812;-80
2021/09/27 08:47:12;;;;;;;9.47;7.63;;;;;;;25.24;50.65;95162.72;5133506;27;20605;-80
2021/09/27 08:49:44;;;;;;;9.40;7.50;;;;;;;25.32;50.52;95160.63;5133027;27;20575;-80
2021/09/27 08:52:14;;;;;;;8.60;6.60;;;;;;;25.43;50.43;95159.09;5133088;27;20924;-80
2021/09/27 08:54:43;;;;;;;13.30;6.63;;;;;;;25.37;49.07;95159.97;5133274;27;20460;-80
2021/09/27 08:57:16;;;;;;;10.10;8.93;;;;;;;25.37;49.33;95151.91;5132868;27;20456;-80
2021/09/27 08:59:50;;;;;;;13.97;7.40;;;;;;;24.93;50.64;95148.16;5133134;27;20464;-80
2021/09/27 09:02:30;;;;;;;9.40;6.90;;;;;;;24.77;50.91;95150.47;5135099;27;20456;-79
2021/09/27 09:05:08;;;;;;;9.60;8.10;;;;;;;24.69;51.33;95141.63;5137507;27;20792;-79
2021/09/27 09:07:42;;;;;;;8.17;6.80;;;;;;;24.82;52.74;95138.06;5137225;27;20937;-80
2021/09/27 09:10:10;;;;;;;8.07;6.87;;;;;;;24.95;52.46;95139.91;5137315;27;20491;-80
2021/09/27 09:12:39;;;;;;;11.53;6.30;;;;;;;25.08;52.80;95137.16;5137186;27;20524;-80
2021/09/27 09:15:15;;;;;;;12.73;7.17;;;;;;;25.30;53.52;95135.00;5137102;27;20451;-80
2021/09/27 09:17:48;;;;;;;14.00;6.60;;;;;;;25.44;52.70;95135.72;5137062;27;20532;-80
2021/09/27 09:20:19;;;;;;;7.60;6.87;;;;;;;25.50;52.55;95132.22;5136966;27;20445;-80
2021/09/27 09:22:48;;;;;;;9.40;6.70;;;;;;;25.33;49.82;95130.03;5136918;27;20950;-80
2021/09/27 09:25:22;;;;;;;13.53;7.83;;;;;;;25.29;51.50;95133.34;5136739;27;20477;-80
2021/09/27 09:27:49;;;;;;;9.47;6.70;;;;;;;25.27;50.72;95125.50;5136869;27;20448;-80
2021/09/27 09:30:17;;;;;;;8.57;7.30;;;;;;;25.23;51.04;95126.97;5100490;27;20488;-80
2021/09/27 09:32:45;;;;;;;7.67;6.80;;;;;;;25.18;51.26;95117.94;5136740;27;20470;-80
2021/09/27 09:35:19;;;;;;;10.30;6.73;;;;;;;25.18;51.05;95112.56;5136893;27;20459;-80
2021/09/27 09:37:50;;;;;;;7.40;5.60;;;;;;;25.09;51.32;95111.97;5136955;27;20437;-80
2021/09/27 09:40:21;;;;;;;8.30;6.40;;;;;;;24.96;50.67;95098.56;5136528;27;20964;-80
2021/09/27 09:43:01;;;;;;;9.63;6.80;;;;;;;24.92;52.21;95094.69;5136416;27;20442;-80
2021/09/27 09:45:31;;;;;;;16.17;7.27;;;;;;;24.92;54.73;95100.03;5136276;27;20437;-80
2021/09/27 09:48:18;;;;;;;9.47;6.97;;;;;;;24.83;54.60;95098.63;5136715;27;20440;-80
2021/09/27 09:50:47;;;;;;;10.10;6.23;;;;;;;24.96;55.31;95095.91;5136341;27;20456;-80
2021/09/27 09:53:21;;;;;;;7.60;5.30;;;;;;;24.87;52.49;95091.81;5136247;27;20434;-80
2021/09/27 09:55:57;;;;;;;7.10;6.47;;;;;;;24.63;52.38;95094.16;5136518;27;20451;-80
2021/09/27 09:58:34;;;;;;;8.10;5.87;;;;;;;24.69;52.04;95098.69;5136334;27;20452;-80
2021/09/27 10:01:05;;;;;;;8.10;6.30;;;;;;;24.87;54.55;95091.81;5136388;27;20467;-80
2021/09/27 10:03:36;;;;;;;11.93;6.27;;;;;;;24.94;53.44;95092.59;5100788;27;20520;-80
2021/09/27 10:06:05;;;;;;;6.87;6.20;;;;;;;25.04;52.25;95087.63;5136303;27;20524;-80
2021/09/27 10:08:33;;;;;;;10.13;6.73;;;;;;;25.05;51.10;95083.88;5136145;27;20484;-80
2021/09/27 10:11:03;;;;;;;11.07;5.80;;;;;;;25.18;51.21;95083.84;5136319;27;20441;-80
2021/09/27 10:13:39;;;;;;;11.13;6.40;;;;;;;25.21;50.87;95088.78;5134782;27;20548;-80
2021/09/27 10:16:12;;;;;;;13.10;6.57;;;;;;;25.27;49.57;95084.38;5135803;27;20455;-80
2021/09/27 10:18:44;;;;;;;6.50;5.90;;;;;;;25.31;48.52;95083.75;5136006;27;20452;-80
2021/09/27 10:21:28;;;;;;;8.10;6.20;;;;;;;25.27;49.29;95079.03;5136089;27;20457;-80
2021/09/27 10:23:58;;;;;;;10.30;5.77;;;;;;;25.35;49.38;95076.06;5072103;28;20959;-80
2021/09/27 10:26:32;;;;;;;9.73;6.20;;;;;;;25.26;48.55;95070.13;5072226;28;20443;-80
2021/09/27 10:29:04;;;;;;;5.67;5.13;;;;;;;25.25;49.77;95067.66;5072086;28;20562;-80
2021/09/27 10:31:32;;;;;;;7.03;5.63;;;;;;;25.17;48.84;95076.00;5055589;28;20831;-80
2021/09/27 10:34:04;;;;;;;8.30;5.50;;;;;;;25.17;47.91;95068.75;5072074;28;20445;-80
2021/09/27 10:36:37;;;;;;;12.73;5.90;;;;;;;25.36;48.70;95060.78;5072208;28;21004;-80
2021/09/27 10:39:07;;;;;;;9.87;5.43;;;;;;;25.45;49.38;95057.63;5072082;28;20440;-80
2021/09/27 10:41:37;;;;;;;11.33;6.43;;;;;;;25.60;48.77;95051.91;5071909;28;20796;-81
2021/09/27 10:44:09;;;;;;;11.43;5.93;;;;;;;25.69;47.64;95036.34;5072086;28;20448;-81
2021/09/27 10:46:39;;;;;;;9.67;6.87;;;;;;;25.78;48.47;95035.06;5071967;28;20802;-80
2021/09/27 10:49:17;;;;;;;8.17;5.27;;;;;;;25.78;46.43;95032.38;5071766;28;20495;-80
2021/09/27 10:51:47;;;;;;;7.00;5.40;;;;;;;25.76;45.61;95026.38;5071813;28;20845;-80
2021/09/27 10:54:26;;;;;;;6.37;5.10;;;;;;;25.51;45.90;95023.69;5071726;28;20448;-80
2021/09/27 10:56:56;;;;;;;5.80;5.03;;;;;;;25.44;46.14;95020.19;5071721;28;20448;-80
2021/09/27 10:59:34;;;;;;;7.73;6.30;;;;;;;25.53;47.84;95010.84;5071686;28;20459;-80
2021/09/27 11:02:09;;;;;;;7.50;6.23;;;;;;;25.51;45.48;95008.38;5125159;27;20806;-80
2021/09/27 11:04:44;;;;;;;6.70;5.20;;;;;;;25.78;48.31;95010.88;5135075;27;20449;-80
2021/09/27 11:07:26;;;;;;;6.67;5.57;;;;;;;25.93;44.93;94998.69;5135255;27;20437;-80
2021/09/27 11:09:55;;;;;;;12.47;6.50;;;;;;;26.05;44.53;95003.34;5134880;27;20484;-80
2021/09/27 11:12:36;;;;;;;13.97;6.17;;;;;;;26.13;43.55;94992.28;5134810;27;20438;-80
2021/09/27 11:15:13;;;;;;;8.90;6.47;;;;;;;26.18;42.82;94990.56;5134982;27;20448;-79
2021/09/27 11:17:47;;;;;;;10.10;6.30;;;;;;;26.24;42.34;94983.47;5134939;27;20441;-80
2021/09/27 11:20:58;;;;;;;9.27;6.27;;;;;;;26.27;44.78;94985.69;5134642;27;20442;-80
2021/09/27 11:23:33;;;;;;;13.10;6.90;;;;;;;26.21;43.89;94982.06;5071328;28;21022;-80
2021/09/27 11:26:29;;;;;;;10.30;7.50;;;;;;;26.23;44.46;94976.44;5070882;28;20846;-80
2021/09/27 11:29:03;;;;;;;10.23;6.93;;;;;;;26.42;46.64;94970.03;5070887;28;20481;-80
2021/09/27 11:31:37;;;;;;;9.07;6.03;;;;;;;26.52;43.98;94970.31;5070791;28;20450;-80
2021/09/27 11:34:31;;;;;;;12.87;5.33;;;;;;;26.60;41.47;94968.34;5071077;28;20943;-80
2021/09/27 11:37:18;;;;;;;6.93;5.40;;;;;;;26.59;42.16;94970.22;5070838;28;20522;-80
2021/09/27 11:39:48;;;;;;;5.43;4.87;;;;;;;26.49;40.38;94965.38;5070685;28;20444;-80
2021/09/27 11:42:35;;;;;;;7.00;5.40;;;;;;;26.38;41.80;94966.16;5070742;28;20439;-81
2021/09/27 11:45:42;;;;;;;8.73;6.00;;;;;;;26.44;40.44;94959.88;5010753;28;20457;-81
2021/09/27 11:48:13;;;;;;;9.27;5.33;;;;;;;26.49;41.13;94957.31;4971857;28;21011;-80
2021/09/27 11:50:55;;;;;;;11.47;5.40;;;;;;;26.55;41.21;94955.59;4972173;28;20486;-80
2021/09/27 11:53:35;;;;;;;9.10;5.77;;;;;;;26.50;40.78;94947.38;4971934;28;20865;-79
2021/09/27 11:56:09;;;;;;;8.70;5.10;;;;;;;26.47;41.61;94956.72;4971896;28;20448;-80
2021/09/27 11:58:43;;;;;;;5.40;4.90;;;;;;;26.52;41.98;94954.16;4972008;28;20459;-81
2021/09/27 12:01:15;;;;;;;7.10;5.10;;;;;;;26.43;41.46;94949.34;5024618;28;20445;-80
2021/09/27 12:03:55;;;;;;;8.30;5.10;;;;;;;26.50;41.94;94963.53;5030370;28;20447;-79